createdAt,value
2018-08-22T00:01:33.082Z,13.30
2018-08-22T00:04:30.994Z,13.30
2018-08-22T00:07:28.648Z,13.40
2018-08-22T00:10:26.528Z,13.30
2018-08-22T00:13:24.254Z,13.30
2018-08-22T00:16:22.039Z,13.40
2018-08-22T00:19:19.684Z,13.30
2018-08-22T00:22:17.529Z,13.20
2018-08-22T00:25:15.242Z,13.30
2018-08-22T00:28:12.996Z,13.30
2018-08-22T00:31:10.850Z,13.30
2018-08-22T00:34:23.662Z,13.30
2018-08-22T00:37:22.372Z,13.30
2018-08-22T00:40:20.266Z,13.20
2018-08-22T00:43:18.162Z,13.10
2018-08-22T00:46:15.794Z,13.10
2018-08-22T00:49:13.390Z,13.10
2018-08-22T00:52:10.919Z,13.10
2018-08-22T00:55:08.417Z,13.10
2018-08-22T00:58:06.010Z,13.10
2018-08-22T01:01:03.705Z,13.10
2018-08-22T01:04:01.424Z,13.10
2018-08-22T01:06:59.223Z,13.10
2018-08-22T01:09:57.111Z,13.00
2018-08-22T01:12:54.967Z,13.00
2018-08-22T01:15:52.612Z,13.00
2018-08-22T01:18:50.459Z,13.00
2018-08-22T01:21:48.207Z,13.00
2018-08-22T01:24:45.934Z,12.90
2018-08-22T01:27:44.685Z,12.90
2018-08-22T01:30:42.498Z,12.90
2018-08-22T01:33:41.217Z,12.90
2018-08-22T01:36:38.842Z,13.00
2018-08-22T01:39:36.478Z,12.90
2018-08-22T01:42:34.210Z,12.90
2018-08-22T01:45:32.019Z,12.90
2018-08-22T01:48:29.864Z,12.90
2018-08-22T01:51:27.558Z,12.90
2018-08-22T01:54:25.191Z,12.80
2018-08-22T01:57:22.842Z,12.70
2018-08-22T02:00:21.577Z,12.70
2018-08-22T02:03:19.402Z,12.70
2018-08-22T02:06:17.170Z,12.60
2018-08-22T02:09:14.916Z,12.50
2018-08-22T02:12:12.727Z,12.40
2018-08-22T02:15:10.546Z,12.50
2018-08-22T02:18:08.467Z,12.40
2018-08-22T02:21:06.339Z,12.50
2018-08-22T02:24:04.029Z,12.80
2018-08-22T02:27:01.873Z,13.00
2018-08-22T02:29:59.538Z,13.20
2018-08-22T02:32:57.233Z,13.20
2018-08-22T02:35:55.006Z,13.10
2018-08-22T02:38:52.678Z,13.10
2018-08-22T02:41:50.507Z,13.00
2018-08-22T02:44:48.019Z,13.00
2018-08-22T02:47:45.940Z,13.00
2018-08-22T02:50:43.804Z,12.90
2018-08-22T02:53:41.474Z,12.90
2018-08-22T02:56:39.431Z,12.90
2018-08-22T02:59:37.291Z,12.90
2018-08-22T03:02:42.242Z,12.80
2018-08-22T03:05:39.890Z,12.70
2018-08-22T03:08:37.707Z,12.60
2018-08-22T03:11:35.641Z,12.50
2018-08-22T03:14:33.215Z,12.60
2018-08-22T03:17:30.740Z,12.60
2018-08-22T03:20:28.418Z,12.60
2018-08-22T03:23:26.187Z,12.70
2018-08-22T03:26:23.935Z,12.90
2018-08-22T03:29:21.647Z,12.90
2018-08-22T03:32:19.145Z,12.90
2018-08-22T03:35:16.824Z,12.70
2018-08-22T03:38:14.432Z,12.60
2018-08-22T03:41:12.334Z,12.70
2018-08-22T03:44:10.161Z,12.70
2018-08-22T03:47:07.902Z,12.80
2018-08-22T03:50:05.656Z,12.80
2018-08-22T03:53:03.399Z,12.80
2018-08-22T03:56:01.042Z,12.80
2018-08-22T03:58:58.698Z,12.70
2018-08-22T04:01:56.473Z,12.70
2018-08-22T04:04:54.230Z,12.80
2018-08-22T04:07:52.110Z,12.90
2018-08-22T04:10:49.816Z,12.90
2018-08-22T04:13:47.556Z,12.90
2018-08-22T04:16:45.324Z,13.00
2018-08-22T04:19:43.103Z,12.90
2018-08-22T04:22:40.792Z,12.90
2018-08-22T04:25:38.543Z,12.90
2018-08-22T04:28:36.125Z,12.90
2018-08-22T04:31:33.733Z,12.90
2018-08-22T04:34:32.445Z,12.90
2018-08-22T04:37:30.363Z,12.90
2018-08-22T04:40:29.031Z,12.90
2018-08-22T04:43:26.868Z,13.00
2018-08-22T04:46:24.620Z,13.10
2018-08-22T04:49:22.425Z,13.10
2018-08-22T04:52:21.109Z,13.20
2018-08-22T04:55:18.736Z,13.30
2018-08-22T04:58:16.493Z,13.40
2018-08-22T05:01:14.159Z,13.50
2018-08-22T05:04:12.063Z,13.60
2018-08-22T05:07:09.486Z,13.70
2018-08-22T05:10:07.336Z,13.90
2018-08-22T05:13:05.218Z,14.00
2018-08-22T05:16:02.915Z,14.10
2018-08-22T05:19:00.511Z,14.30
2018-08-22T05:21:58.223Z,14.40
2018-08-22T05:24:56.026Z,14.50
2018-08-22T05:27:53.856Z,14.60
2018-08-22T05:30:51.633Z,14.80
2018-08-22T05:33:49.270Z,14.90
2018-08-22T05:36:47.133Z,15.10
2018-08-22T05:39:44.907Z,15.20
2018-08-22T05:42:42.739Z,15.20
2018-08-22T05:45:42.397Z,15.30
2018-08-22T05:48:40.031Z,15.50
2018-08-22T05:51:37.823Z,15.50
2018-08-22T05:54:35.698Z,15.60
2018-08-22T05:57:33.366Z,15.60
2018-08-22T06:00:31.064Z,15.70
2018-08-22T06:03:28.914Z,15.80
2018-08-22T06:06:26.701Z,15.90
2018-08-22T06:09:24.490Z,16.10
2018-08-22T06:12:22.236Z,16.30
2018-08-22T06:15:20.265Z,16.60
2018-08-22T06:18:18.709Z,16.80
2018-08-22T06:21:16.319Z,16.90
2018-08-22T06:24:14.125Z,17.00
2018-08-22T06:27:11.791Z,17.20
2018-08-22T06:30:09.534Z,17.40
2018-08-22T06:33:07.372Z,17.70
2018-08-22T06:36:05.089Z,18.90
2018-08-22T06:39:03.701Z,21.20
2018-08-22T06:42:02.374Z,22.00
2018-08-22T06:45:00.007Z,23.50
2018-08-22T06:47:57.864Z,25.00
2018-08-22T06:50:55.573Z,24.60
2018-08-22T06:53:53.271Z,25.20
2018-08-22T06:56:50.913Z,25.50
2018-08-22T06:59:48.626Z,25.30
2018-08-22T07:02:46.403Z,24.70
2018-08-22T07:05:45.452Z,23.80
2018-08-22T07:08:44.018Z,24.30
2018-08-22T07:11:41.657Z,25.50
2018-08-22T07:14:39.349Z,25.20
2018-08-22T07:17:39.161Z,25.20
2018-08-22T07:20:36.731Z,25.40
2018-08-22T07:23:34.418Z,26.40
2018-08-22T07:26:31.948Z,26.90
2018-08-22T07:29:29.729Z,27.20
2018-08-22T07:32:27.352Z,27.50
2018-08-22T07:35:25.259Z,27.10
2018-08-22T07:38:22.931Z,27.30
2018-08-22T07:41:20.578Z,27.40
2018-08-22T07:47:48.347Z,28.20
2018-08-22T07:50:45.966Z,29.20
2018-08-22T07:53:43.837Z,28.80
2018-08-22T07:56:41.463Z,27.70
2018-08-22T07:59:39.317Z,26.80
2018-08-22T08:02:37.286Z,26.30
2018-08-22T08:05:34.879Z,27.50
2018-08-22T08:08:32.663Z,28.40
2018-08-22T08:11:30.303Z,28.50
2018-08-22T08:14:28.163Z,28.70
2018-08-22T08:17:26.957Z,28.00
2018-08-22T08:20:24.774Z,28.70
2018-08-22T08:23:22.579Z,29.20
2018-08-22T08:26:20.228Z,28.80
2018-08-22T08:29:18.107Z,28.60
2018-08-22T08:32:15.934Z,28.30
2018-08-22T08:35:13.712Z,29.00
2018-08-22T08:38:12.322Z,28.60
2018-08-22T08:41:10.218Z,27.60
2018-08-22T08:44:08.930Z,26.40
2018-08-22T08:47:06.660Z,25.30
2018-08-22T08:50:04.138Z,25.00
2018-08-22T08:53:01.763Z,26.20
2018-08-22T08:55:59.436Z,27.80
2018-08-22T08:58:57.346Z,28.60
2018-08-22T09:01:54.865Z,28.40
2018-08-22T09:04:52.441Z,28.50
2018-08-22T09:07:50.155Z,29.20
2018-08-22T09:10:48.742Z,29.20
2018-08-22T09:14:17.488Z,28.90
2018-08-22T09:17:15.275Z,27.60
2018-08-22T09:20:13.153Z,27.50
2018-08-22T09:23:11.080Z,28.10
2018-08-22T09:26:08.867Z,29.40
2018-08-22T09:29:06.563Z,29.80
2018-08-22T09:32:04.199Z,29.40
2018-08-22T09:35:01.932Z,29.40
2018-08-22T09:37:59.636Z,29.30
2018-08-22T09:40:57.382Z,29.10
2018-08-22T09:43:55.173Z,27.90
2018-08-22T09:46:54.231Z,27.50
2018-08-22T09:49:51.956Z,27.20
2018-08-22T09:52:50.607Z,27.90
2018-08-22T09:55:48.082Z,28.30
2018-08-22T09:58:45.820Z,27.70
2018-08-22T10:01:49.456Z,27.80
2018-08-22T10:04:47.262Z,28.50
2018-08-22T10:07:46.398Z,28.90
2018-08-22T10:10:43.873Z,28.20
2018-08-22T10:13:41.812Z,28.30
2018-08-22T10:16:39.650Z,28.80
2018-08-22T10:19:37.335Z,27.60
2018-08-22T10:22:34.983Z,25.40
2018-08-22T10:25:32.710Z,24.50
2018-08-22T10:28:30.378Z,24.00
2018-08-22T10:31:28.035Z,24.10
2018-08-22T10:34:25.828Z,24.50
2018-08-22T10:37:24.606Z,25.30
2018-08-22T10:40:22.179Z,26.40
2018-08-22T10:43:19.868Z,26.30
2018-08-22T10:46:17.636Z,26.70
2018-08-22T10:49:15.309Z,27.30
2018-08-22T10:52:14.029Z,26.60
2018-08-22T10:55:11.818Z,26.10
2018-08-22T10:58:09.784Z,25.40
2018-08-22T11:01:08.372Z,24.50
2018-08-22T11:04:06.083Z,24.10
2018-08-22T11:07:03.914Z,24.10
2018-08-22T11:10:01.787Z,24.00
2018-08-22T11:12:59.160Z,24.00
2018-08-22T11:15:56.863Z,24.40
2018-08-22T11:18:55.476Z,24.90
2018-08-22T11:22:05.316Z,24.60
2018-08-22T11:25:15.032Z,24.10
2018-08-22T11:28:24.821Z,23.50
2018-08-22T11:31:35.315Z,23.00
2018-08-22T11:34:44.861Z,22.90
2018-08-22T11:37:42.579Z,22.70
2018-08-22T11:40:40.156Z,22.80
2018-08-22T11:43:37.751Z,22.70
2018-08-22T11:46:35.421Z,22.70
2018-08-22T11:49:33.554Z,22.40
2018-08-22T11:52:31.889Z,22.50
2018-08-22T11:55:29.473Z,22.50
2018-08-22T11:58:27.230Z,22.30
2018-08-22T12:01:25.287Z,22.20
2018-08-22T12:04:22.887Z,22.10
2018-08-22T12:07:20.512Z,21.90
2018-08-22T12:10:18.190Z,21.80
2018-08-22T12:13:15.901Z,21.80
2018-08-22T12:16:13.951Z,21.70
2018-08-22T12:19:11.552Z,21.80
2018-08-22T12:22:09.289Z,21.70
2018-08-22T12:25:06.907Z,21.50
2018-08-22T12:28:04.551Z,21.50
2018-08-22T12:31:02.487Z,21.30
2018-08-22T12:34:00.062Z,21.20
2018-08-22T12:36:57.808Z,20.90
2018-08-22T12:39:55.523Z,20.80
2018-08-22T12:42:53.435Z,20.90
2018-08-22T12:45:51.321Z,21.10
2018-08-22T12:48:48.912Z,21.40
2018-08-22T12:51:46.638Z,21.60
2018-08-22T12:54:44.436Z,21.60
2018-08-22T12:57:42.013Z,21.30
2018-08-22T13:00:39.857Z,21.20
2018-08-22T13:03:38.898Z,21.40
2018-08-22T13:06:36.728Z,21.50
2018-08-22T13:09:34.387Z,21.40
2018-08-22T13:12:32.227Z,21.80
2018-08-22T13:15:29.733Z,21.90
2018-08-22T13:18:29.587Z,22.00
2018-08-22T13:21:27.426Z,22.20
2018-08-22T13:24:25.155Z,22.10
2018-08-22T13:27:22.831Z,21.70
2018-08-22T13:30:20.411Z,21.70
2018-08-22T13:33:18.096Z,21.80
2018-08-22T13:36:15.736Z,22.10
2018-08-22T13:39:13.403Z,22.40
2018-08-22T13:42:11.138Z,22.30
2018-08-22T13:45:08.763Z,22.70
2018-08-22T13:48:06.273Z,23.30
2018-08-22T13:51:04.768Z,23.00
2018-08-22T13:54:03.631Z,22.60
2018-08-22T13:57:01.336Z,22.50
2018-08-22T13:59:59.107Z,22.50
2018-08-22T14:02:56.583Z,22.40
2018-08-22T14:05:54.407Z,22.20
2018-08-22T14:08:51.973Z,22.00
2018-08-22T14:11:50.094Z,21.80
2018-08-22T14:14:47.572Z,21.90
2018-08-22T14:17:46.335Z,21.70
2018-08-22T14:20:44.181Z,21.30
2018-08-22T14:23:41.977Z,21.30
2018-08-22T14:26:39.760Z,21.20
2018-08-22T14:29:37.494Z,21.00
2018-08-22T14:32:35.388Z,20.90
2018-08-22T14:35:33.206Z,20.90
2018-08-22T14:38:30.806Z,20.90
2018-08-22T14:41:28.296Z,20.80
2018-08-22T14:44:27.244Z,20.80
2018-08-22T14:47:24.760Z,20.60
2018-08-22T14:50:22.648Z,20.50
2018-08-22T14:53:20.246Z,20.40
2018-08-22T14:56:18.192Z,20.40
2018-08-22T14:59:15.870Z,20.40
2018-08-22T15:02:14.275Z,20.40
2018-08-22T15:05:43.400Z,20.50
2018-08-22T15:08:41.207Z,20.50
2018-08-22T15:11:38.672Z,20.40
2018-08-22T15:14:36.391Z,20.30
2018-08-22T15:17:34.230Z,20.20
2018-08-22T15:20:31.969Z,20.20
2018-08-22T15:23:30.825Z,20.20
2018-08-22T15:26:28.340Z,20.10
2018-08-22T15:29:35.042Z,20.10
2018-08-22T15:32:33.654Z,20.10
2018-08-22T15:35:31.293Z,20.10
2018-08-22T15:38:28.973Z,19.90
2018-08-22T15:41:26.641Z,20.00
2018-08-22T15:44:24.354Z,20.10
2018-08-22T15:47:21.992Z,20.10
2018-08-22T15:50:20.925Z,20.20
2018-08-22T15:53:18.944Z,20.20
2018-08-22T15:56:16.316Z,20.30
2018-08-22T15:59:14.938Z,20.30
2018-08-22T16:02:12.558Z,20.30
2018-08-22T16:05:16.238Z,20.20
2018-08-22T16:08:15.027Z,20.20
2018-08-22T16:11:14.900Z,20.30
2018-08-22T16:14:12.662Z,20.30
2018-08-22T16:17:10.110Z,20.20
2018-08-22T16:20:07.813Z,20.20
2018-08-22T16:23:09.696Z,20.10
2018-08-22T16:26:08.234Z,20.20
2018-08-22T16:29:11.817Z,20.10
2018-08-22T16:32:09.383Z,20.10
2018-08-22T16:35:06.838Z,20.10
2018-08-22T16:38:15.669Z,20.20
2018-08-22T16:41:14.543Z,20.20
2018-08-22T16:44:12.227Z,20.30
2018-08-22T16:47:09.982Z,20.40
2018-08-22T16:50:07.715Z,20.50
2018-08-22T16:53:05.415Z,20.60
2018-08-22T16:56:04.221Z,20.40
2018-08-22T16:59:09.027Z,20.40
2018-08-22T17:02:07.676Z,20.40
2018-08-22T17:05:05.368Z,20.30
2018-08-22T17:08:03.173Z,20.40
2018-08-22T17:11:08.643Z,20.30
2018-08-22T17:14:06.340Z,20.20
2018-08-22T17:17:04.170Z,20.20
2018-08-22T17:20:01.973Z,20.20
2018-08-22T17:22:59.840Z,20.20
2018-08-22T17:25:57.385Z,20.20
2018-08-22T17:28:55.969Z,20.10
2018-08-22T17:31:57.901Z,20.10
2018-08-22T17:34:55.825Z,20.10
2018-08-22T17:37:59.618Z,20.10
2018-08-22T17:40:57.382Z,20.10
2018-08-22T17:44:06.210Z,20.10
2018-08-22T17:48:09.213Z,20.10
2018-08-22T17:51:06.896Z,20.00
2018-08-22T17:54:04.590Z,19.90
2018-08-22T17:57:03.504Z,19.90
2018-08-22T18:00:03.570Z,19.80
2018-08-22T18:03:01.555Z,19.80
2018-08-22T18:06:00.231Z,19.80
2018-08-22T18:08:57.994Z,19.70
2018-08-22T18:11:55.655Z,19.70
2018-08-22T18:14:53.264Z,19.60
2018-08-22T18:17:51.873Z,19.60
2018-08-22T18:20:54.567Z,19.60
2018-08-22T18:24:00.644Z,19.60
2018-08-22T18:27:00.701Z,19.60
2018-08-22T18:29:58.449Z,19.60
2018-08-22T18:32:57.070Z,19.60
2018-08-22T18:35:54.733Z,19.50
2018-08-22T18:38:52.238Z,19.40
2018-08-22T18:41:50.081Z,19.40
2018-08-22T18:44:47.945Z,19.40
2018-08-22T18:47:46.698Z,19.40
2018-08-22T18:50:44.341Z,19.40
2018-08-22T18:53:42.061Z,19.30
2018-08-22T18:56:39.694Z,19.30
2018-08-22T18:59:43.488Z,19.30
2018-08-22T19:02:41.158Z,19.20
2018-08-22T19:05:43.787Z,19.20
2018-08-22T19:08:42.154Z,19.20
2018-08-22T19:11:40.003Z,19.20
2018-08-22T19:14:44.756Z,19.10
2018-08-22T19:17:42.172Z,19.20
2018-08-22T19:20:39.950Z,19.20
2018-08-22T19:23:37.723Z,19.20
2018-08-22T19:26:36.479Z,19.20
2018-08-22T19:29:34.355Z,19.20
2018-08-22T19:32:31.945Z,19.20
2018-08-22T19:35:29.664Z,19.30
2018-08-22T19:38:32.128Z,19.30
2018-08-22T19:41:48.041Z,19.20
2018-08-22T19:44:45.824Z,19.30
2018-08-22T19:47:45.454Z,19.30
2018-08-22T19:50:43.196Z,19.30
2018-08-22T19:53:40.847Z,19.40
2018-08-22T19:56:39.647Z,19.40
2018-08-22T19:59:37.218Z,19.40
2018-08-22T20:02:35.114Z,19.40
2018-08-22T20:05:32.898Z,19.50
2018-08-22T20:08:39.482Z,19.40
2018-08-22T20:11:39.381Z,19.40
2018-08-22T20:14:36.875Z,19.40
2018-08-22T20:17:36.584Z,19.40
2018-08-22T20:20:34.182Z,19.40
2018-08-22T20:23:32.087Z,19.40
2018-08-22T20:26:30.467Z,19.40
2018-08-22T20:29:28.263Z,19.40
2018-08-22T20:32:32.277Z,19.50
2018-08-22T20:35:36.070Z,19.40
2018-08-22T20:38:33.614Z,19.40
2018-08-22T20:41:32.655Z,19.50
2018-08-22T20:44:36.536Z,19.50
2018-08-22T20:47:34.434Z,19.50
2018-08-22T20:50:33.002Z,19.50
2018-08-22T20:53:31.796Z,19.50
2018-08-22T20:56:29.667Z,19.50
2018-08-22T20:59:28.714Z,19.50
2018-08-22T21:02:26.379Z,19.60
2018-08-22T21:05:25.086Z,19.50
2018-08-22T21:08:22.649Z,19.50
2018-08-22T21:11:20.479Z,19.50
2018-08-22T21:14:18.017Z,19.60
2018-08-22T21:17:15.765Z,19.60
2018-08-22T21:20:34.206Z,19.60
2018-08-22T21:23:32.160Z,19.70
2018-08-22T21:26:34.452Z,19.70
2018-08-22T21:29:32.071Z,19.70
2018-08-22T21:32:29.662Z,19.70
2018-08-22T21:35:33.429Z,19.80
2018-08-22T21:38:31.306Z,19.80
2018-08-22T21:41:29.353Z,19.80
2018-08-22T21:44:28.996Z,19.80
2018-08-22T21:47:26.883Z,19.80
2018-08-22T21:50:24.677Z,19.70
2018-08-22T21:53:23.626Z,19.70
2018-08-22T21:56:21.591Z,19.70
2018-08-22T21:59:20.257Z,19.70
2018-08-22T22:02:19.085Z,19.70
2018-08-22T22:05:16.674Z,19.70
2018-08-22T22:08:15.430Z,19.70
2018-08-22T22:11:19.222Z,19.70
2018-08-22T22:14:33.172Z,19.70
2018-08-22T22:17:30.928Z,19.70
2018-08-22T22:20:28.543Z,19.60
2018-08-22T22:23:26.190Z,19.60
2018-08-22T22:26:24.801Z,19.60
2018-08-22T22:29:22.363Z,19.60
2018-08-22T22:32:19.965Z,19.60
2018-08-22T22:35:17.828Z,19.60
2018-08-22T22:38:17.485Z,19.70
2018-08-22T22:41:15.497Z,19.70
2018-08-22T22:44:13.174Z,19.70
2018-08-22T22:47:10.919Z,19.70
2018-08-22T22:50:08.035Z,19.80
2018-08-22T22:53:05.490Z,19.80
2018-08-22T22:56:03.139Z,19.70
2018-08-22T22:59:00.840Z,19.70
2018-08-22T23:01:58.521Z,19.80
2018-08-22T23:05:02.585Z,19.80
2018-08-22T23:08:00.179Z,19.70
2018-08-22T23:10:57.967Z,19.70
2018-08-22T23:13:55.585Z,19.70
2018-08-22T23:16:53.587Z,19.70
2018-08-22T23:19:51.500Z,19.70
2018-08-22T23:22:49.263Z,19.60
2018-08-22T23:25:47.053Z,19.60
2018-08-22T23:28:44.700Z,19.60
2018-08-22T23:31:42.267Z,19.60
2018-08-22T23:34:40.067Z,19.60
2018-08-22T23:37:38.016Z,19.50
2018-08-22T23:40:36.715Z,19.50
2018-08-22T23:43:36.264Z,19.50
2018-08-22T23:46:34.191Z,19.50
2018-08-22T23:49:32.180Z,19.60
2018-08-22T23:52:29.587Z,19.50
2018-08-22T23:55:28.286Z,19.50
2018-08-22T23:58:26.090Z,19.50
